Campanya meteocatpedra

Dades EMA Mollerussa

?
?
Resum diari 22:30 TU
Dades diàries de l'estació meteorològica
Temperatura mitjana 23.1 °C
Temperatura màxima 31.8 °C 16:03 TU
Temperatura mínima 11.9 °C 4:30 TU
Humitat relativa mitjana 52%
Precipitació acumulada 0.0 mm
Ratxa màxima del vent (2 m) 15.8 km/h - 219º 17:27 TU
Pressió atmosfèrica mitjana 1018.9 hPa
Irradiació solar global 29.3 MJ/m2

El tram horari està expressat en Temps Universal (TU). Cal sumar una hora en horari d'hivern i dues en horari d'estiu per passar a l'hora oficial.

Mollerussa

Metadades estació meteorol´gica
Municipi Mollerussa
Comarca Pla d'Urgell
Altitud 247 m
Data alta 20.01.2010
Estat actual Operativa
Dades de període
Període
TU
TM
°C
TX
°C
TN
°C
HRM
%
PPT
mm
VVM (2 m)
km/h
DVM (2 m)
graus
VVX (2 m)
km/h
PM
hPa
RS
W/m2
00:00 - 00:30 17.4 17.6 16.8 68 0.0 0.7 100 3.2 1020.8 0
00:30 - 01:00 16.4 16.7 15.8 77 0.0 0.4 292 1.4 1020.9 0
01:00 - 01:30 15.2 15.7 14.5 84 0.0 0.4 203 2.9 1021.0 0
01:30 - 02:00 14.4 14.6 14.2 87 0.0 0.4 242 2.5 1021.1 0
02:00 - 02:30 13.9 14.1 13.7 87 0.0 1.1 197 4.0 1021.3 0
02:30 - 03:00 13.5 13.8 13.2 88 0.0 0.7 179 3.2 1021.3 0
03:00 - 03:30 12.9 13.2 12.7 90 0.0 0.4 189 2.2 1021.4 0
03:30 - 04:00 12.7 13.1 12.3 91 0.0 0.0 116 1.4 1021.4 0
04:00 - 04:30 12.3 12.5 12.0 93 0.0 0.0 90 1.4 1021.5 0
04:30 - 05:00 12.5 13.3 11.9 93 0.0 1.4 190 3.2 1021.5 18
05:00 - 05:30 14.9 16.0 13.5 82 0.0 1.8 135 5.4 1021.5 72
05:30 - 06:00 16.3 16.7 16.0 73 0.0 3.6 120 7.2 1021.5 155
06:00 - 06:30 17.9 19.1 16.8 69 0.0 4.0 106 7.2 1021.4 240
06:30 - 07:00 19.9 20.6 19.1 60 0.0 4.7 104 7.9 1021.2 334
07:00 - 07:30 21.6 22.5 20.7 54 0.0 5.0 93 9.4 1021.0 432
07:30 - 08:00 23.2 24.0 22.5 49 0.0 4.7 89 10.1 1020.8 524
08:00 - 08:30 24.6 25.8 23.9 46 0.0 2.5 111 7.2 1020.6 610
08:30 - 09:00 26.1 27.1 25.6 42 0.0 2.2 64 7.6 1020.2 690
09:00 - 09:30 26.1 26.6 25.6 41 0.0 3.6 1 10.1 1020.1 766
09:30 - 10:00 27.0 27.5 26.4 39 0.0 3.6 315 9.0 1019.9 827
10:00 - 10:30 27.6 28.0 27.2 37 0.0 3.6 314 10.8 1019.7 878
10:30 - 11:00 28.2 28.7 27.7 37 0.0 4.7 330 11.2 1019.3 907
11:00 - 11:30 28.8 29.3 28.2 33 0.0 5.0 317 12.6 1019.0 938
11:30 - 12:00 29.3 29.8 28.9 32 0.0 5.0 277 13.0 1018.6 947
12:00 - 12:30 29.6 30.4 28.9 32 0.0 5.0 308 12.6 1018.4 940
12:30 - 13:00 30.1 30.4 29.8 31 0.0 4.7 282 11.9 1018.0 927
13:00 - 13:30 30.4 31.3 29.9 31 0.0 4.7 295 15.5 1017.7 900
13:30 - 14:00 30.7 31.1 30.3 31 0.0 4.7 338 11.2 1017.4 859
14:00 - 14:30 30.9 31.1 30.7 31 0.0 5.0 305 13.3 1016.9 813
14:30 - 15:00 31.0 31.5 30.5 31 0.0 4.3 269 11.9 1016.6 735
15:00 - 15:30 31.2 31.6 30.5 30 0.0 3.6 341 9.7 1016.2 663
15:30 - 16:00 31.2 31.6 30.7 30 0.0 3.6 317 11.2 1015.8 579
16:00 - 16:30 31.3 31.8 31.0 30 0.0 3.2 321 9.0 1015.5 490
16:30 - 17:00 31.2 31.5 31.0 29 0.0 4.0 320 10.1 1015.5 398
17:00 - 17:30 30.6 31.1 29.5 30 0.0 5.8 232 15.8 1015.5 297
17:30 - 18:00 29.2 29.5 28.9 33 0.0 6.1 211 13.7 1015.7 204
18:00 - 18:30 28.5 29.0 27.8 36 0.0 4.0 189 9.0 1016.0 120
18:30 - 19:00 27.1 27.8 26.1 36 0.0 5.0 177 11.5 1016.2 49
19:00 - 19:30 25.2 26.0 24.5 39 0.0 3.6 173 9.0 1016.5 4
19:30 - 20:00 23.9 24.4 23.4 41 0.0 3.2 164 9.4 1016.9 0
20:00 - 20:30 23.1 23.6 22.3 41 0.0 3.6 168 11.2 1017.2 0
20:30 - 21:00 21.7 22.8 20.6 46 0.0 2.9 24 9.4 1017.7 0
21:00 - 21:30 20.4 22.5 18.6 55 0.0 1.1 86 5.0 1018.1 0
21:30 - 22:00 17.9 18.5 17.4 68 0.0 1.8 206 5.0 1018.4 0
22:00 - 22:30 17.6 17.9 17.2 68 0.0 2.2 186 4.3 1018.4 0
22:30 - 23:00 17.9 18.2 17.7 63 0.0 1.8 151 5.4 1018.3 0

Les dades en taronja només han passat un control de qualitat automàtic. Resta pendent la seva validació definitiva.